Weather at Jackson-Medgar Wiley Evers International Airport

Public forecast

Using degrees Fahrenheit for public forecast. Weather courtesy of forecast.io.

Current aviation weather report (METAR) for Jackson-Medgar Wiley Evers International Airport

2024/06/15 04:54 (retrieved 19 minutes ago)

KJAN 150454Z AUTO 00000KT 10SM CLR 24/21 A2996 RMK AO2 SLP138 T02440206

Closest aviation forecast (TAF) to Jackson-Medgar Wiley Evers International Airport

Forecast is more than 6 hours old.

Closest forecast is Columbus Air Force Base, 114.7 nm (212.4 km) NE.

2024/06/14 20:09 (retrieved 9 hours ago)

TAF TAF KCBM 142000Z 1420/1602 34006KT 9999 FEW055 SCT250 QNH2982INS BECMG 1505/1506 03005KT 9999 FEW110 SCT250 QNH2987INS BECMG 1514/1515 06009KT 9999 FEW050 FEW100 SCT300 QNH2982INS BECMG 1520/1521 04007KT 9999 FEW055 SCT110 QNH2978INS BECMG 1600/1601 05006KT 9999 FEW060 SCT250 QNH2975INS TX35/1421Z TN21/1511Z